createdAt,value
2018-09-06T00:01:37.987Z,22.00
2018-09-06T00:04:06.265Z,22.10
2018-09-06T00:06:34.452Z,22.20
2018-09-06T00:09:02.654Z,22.20
2018-09-06T00:11:30.885Z,22.10
2018-09-06T00:13:59.120Z,22.20
2018-09-06T00:16:27.338Z,22.10
2018-09-06T00:18:55.597Z,22.10
2018-09-06T00:21:23.813Z,21.90
2018-09-06T00:23:52.077Z,21.70
2018-09-06T00:26:20.336Z,21.60
2018-09-06T00:28:48.617Z,21.60
2018-09-06T00:31:16.825Z,21.60
2018-09-06T00:33:45.099Z,21.60
2018-09-06T00:36:13.333Z,21.60
2018-09-06T00:38:41.583Z,21.40
2018-09-06T00:41:09.823Z,21.30
2018-09-06T00:43:38.076Z,21.40
2018-09-06T00:46:06.531Z,21.50
2018-09-06T00:48:34.726Z,21.40
2018-09-06T00:51:02.902Z,21.20
2018-09-06T00:53:31.151Z,21.30
2018-09-06T00:55:59.319Z,21.30
2018-09-06T00:58:27.548Z,21.30
2018-09-06T01:00:55.960Z,21.30
2018-09-06T01:03:24.150Z,21.30
2018-09-06T01:05:52.332Z,21.40
2018-09-06T01:08:20.556Z,21.40
2018-09-06T01:10:48.760Z,21.30
2018-09-06T01:13:16.949Z,21.30
2018-09-06T01:15:45.163Z,21.20
2018-09-06T01:18:13.376Z,21.20
2018-09-06T01:20:41.610Z,21.10
2018-09-06T01:23:09.788Z,21.20
2018-09-06T01:25:43.415Z,21.10
2018-09-06T01:28:11.628Z,21.10
2018-09-06T01:30:39.885Z,21.10
2018-09-06T01:33:08.072Z,21.10
2018-09-06T01:35:36.316Z,21.10
2018-09-06T01:38:04.497Z,21.10
2018-09-06T01:40:32.681Z,21.20
2018-09-06T01:43:00.917Z,21.10
2018-09-06T01:45:29.165Z,21.20
2018-09-06T01:47:57.383Z,21.10
2018-09-06T01:50:25.537Z,21.10
2018-09-06T01:52:53.809Z,21.10
2018-09-06T01:55:22.057Z,21.10
2018-09-06T01:57:50.321Z,21.20
2018-09-06T02:00:18.556Z,21.10
2018-09-06T02:02:46.879Z,21.10
2018-09-06T02:05:19.356Z,21.10
2018-09-06T02:07:47.608Z,21.10
2018-09-06T02:10:15.816Z,21.00
2018-09-06T02:12:44.016Z,21.10
2018-09-06T02:15:12.281Z,21.10
2018-09-06T02:17:40.455Z,21.10
2018-09-06T02:20:08.631Z,21.10
2018-09-06T02:22:36.840Z,21.10
2018-09-06T02:25:05.289Z,21.10
2018-09-06T02:27:33.487Z,21.20
2018-09-06T02:30:01.765Z,21.10
2018-09-06T02:32:29.965Z,21.20
2018-09-06T02:34:58.290Z,21.20
2018-09-06T02:37:26.760Z,21.20
2018-09-06T02:39:55.061Z,21.20
2018-09-06T02:42:23.317Z,21.00
2018-09-06T02:44:51.554Z,21.00
2018-09-06T02:47:19.756Z,21.00
2018-09-06T02:49:53.400Z,20.90
2018-09-06T02:52:21.673Z,20.70
2018-09-06T02:54:49.883Z,20.90
2018-09-06T02:57:18.090Z,21.00
2018-09-06T02:59:47.168Z,20.90
2018-09-06T03:02:15.450Z,20.90
2018-09-06T03:04:43.973Z,20.90
2018-09-06T03:07:12.177Z,20.90
2018-09-06T03:09:40.391Z,20.90
2018-09-06T03:12:09.690Z,20.90
2018-09-06T03:14:37.925Z,20.80
2018-09-06T03:17:06.180Z,20.80
2018-09-06T03:19:34.372Z,20.70
2018-09-06T03:22:02.568Z,20.60
2018-09-06T03:24:30.765Z,20.60
2018-09-06T03:26:58.994Z,20.60
2018-09-06T03:29:27.195Z,20.80
2018-09-06T03:31:55.392Z,20.80
2018-09-06T03:34:23.610Z,20.80
2018-09-06T03:36:51.825Z,20.70
2018-09-06T03:39:20.011Z,20.80
2018-09-06T03:41:48.207Z,20.90
2018-09-06T03:44:16.386Z,20.80
2018-09-06T03:46:44.569Z,20.80
2018-09-06T03:49:12.796Z,20.80
2018-09-06T03:51:40.954Z,20.80
2018-09-06T03:54:09.256Z,20.90
2018-09-06T03:56:37.475Z,20.90
2018-09-06T03:59:05.809Z,20.80
2018-09-06T04:01:34.060Z,20.80
2018-09-06T04:04:02.241Z,20.80
2018-09-06T04:06:30.433Z,20.80
2018-09-06T04:08:58.671Z,20.80
2018-09-06T04:11:26.833Z,20.80
2018-09-06T04:13:55.181Z,20.70
2018-09-06T04:16:23.460Z,20.80
2018-09-06T04:18:51.687Z,20.80
2018-09-06T04:21:19.988Z,20.80
2018-09-06T04:23:48.152Z,20.80
2018-09-06T04:26:16.337Z,20.80
2018-09-06T04:28:44.497Z,20.70
2018-09-06T04:31:12.681Z,20.70
2018-09-06T04:33:41.035Z,20.70
2018-09-06T04:36:09.299Z,20.70
2018-09-06T04:38:37.408Z,20.70
2018-09-06T04:41:05.633Z,20.70
2018-09-06T04:43:33.959Z,20.60
2018-09-06T04:46:02.127Z,20.70
2018-09-06T04:48:30.328Z,20.60
2018-09-06T04:50:58.546Z,20.70
2018-09-06T04:53:26.718Z,20.70
2018-09-06T04:55:54.906Z,20.80
2018-09-06T04:58:23.132Z,20.80
2018-09-06T05:00:51.330Z,20.80
2018-09-06T05:03:19.467Z,20.80
2018-09-06T05:05:47.705Z,20.80
2018-09-06T05:08:15.906Z,20.80
2018-09-06T05:10:44.185Z,20.80
2018-09-06T05:13:12.431Z,20.80
2018-09-06T05:15:40.652Z,20.80
2018-09-06T05:18:08.843Z,20.90
2018-09-06T05:20:37.140Z,20.90
2018-09-06T05:23:05.831Z,20.80
2018-09-06T05:25:34.307Z,20.80
2018-09-06T05:28:02.476Z,20.80
2018-09-06T05:30:30.715Z,20.80
2018-09-06T05:32:58.911Z,20.90
2018-09-06T05:35:27.107Z,20.90
2018-09-06T05:37:55.313Z,20.80
2018-09-06T05:40:23.598Z,20.80
2018-09-06T05:42:51.809Z,20.80
2018-09-06T05:45:19.994Z,20.60
2018-09-06T05:47:53.609Z,20.50
2018-09-06T05:50:21.822Z,20.60
2018-09-06T05:52:50.057Z,20.50
2018-09-06T05:55:18.364Z,20.50
2018-09-06T05:57:46.531Z,20.50
2018-09-06T06:00:20.040Z,20.40
2018-09-06T06:02:48.813Z,20.30
2018-09-06T06:05:17.074Z,20.40
2018-09-06T06:07:56.710Z,20.30
2018-09-06T06:10:24.933Z,20.10
2018-09-06T06:12:53.471Z,20.20
2018-09-06T06:15:21.676Z,20.20
2018-09-06T06:17:49.870Z,20.30
2018-09-06T06:20:18.107Z,20.50
2018-09-06T06:22:46.411Z,20.50
2018-09-06T06:25:14.616Z,20.60
2018-09-06T06:27:42.816Z,20.70
2018-09-06T06:30:11.037Z,20.70
2018-09-06T06:32:39.281Z,20.80
2018-09-06T06:35:07.495Z,20.80
2018-09-06T06:37:35.714Z,20.80
2018-09-06T06:40:03.910Z,20.70
2018-09-06T06:42:32.158Z,20.70
2018-09-06T06:45:00.339Z,20.70
2018-09-06T06:47:28.591Z,20.70
2018-09-06T06:49:56.800Z,20.80
2018-09-06T06:52:25.073Z,20.80
2018-09-06T06:54:53.269Z,20.80
2018-09-06T06:57:21.457Z,20.60
2018-09-06T06:59:49.678Z,20.40
2018-09-06T07:02:17.892Z,20.20
2018-09-06T07:04:46.069Z,20.30
2018-09-06T07:07:14.325Z,20.40
2018-09-06T07:09:42.537Z,20.40
2018-09-06T07:12:10.833Z,20.40
2018-09-06T07:14:39.045Z,20.30
2018-09-06T07:17:07.345Z,20.20
2018-09-06T07:19:35.623Z,20.10
2018-09-06T07:22:03.859Z,20.00
2018-09-06T07:24:32.101Z,19.90
2018-09-06T07:27:00.323Z,20.00
2018-09-06T07:29:28.607Z,20.20
2018-09-06T07:31:56.800Z,20.30
2018-09-06T07:34:24.992Z,20.30
2018-09-06T07:36:53.175Z,20.50
2018-09-06T07:39:21.411Z,20.50
2018-09-06T07:41:49.618Z,20.50
2018-09-06T07:44:17.828Z,20.60
2018-09-06T07:46:46.140Z,20.80
2018-09-06T07:49:14.315Z,20.70
2018-09-06T07:51:42.535Z,20.80
2018-09-06T07:54:10.742Z,20.70
2018-09-06T07:56:38.946Z,20.80
2018-09-06T07:59:07.177Z,20.90
2018-09-06T08:01:35.381Z,20.70
2018-09-06T08:04:03.621Z,20.80
2018-09-06T08:06:31.797Z,21.00
2018-09-06T08:09:00.013Z,21.00
2018-09-06T08:11:28.213Z,21.10
2018-09-06T08:13:56.365Z,21.00
2018-09-06T08:16:24.603Z,21.00
2018-09-06T08:18:52.877Z,20.90
2018-09-06T08:21:21.090Z,20.90
2018-09-06T08:23:49.345Z,20.90
2018-09-06T08:26:17.601Z,21.00
2018-09-06T08:28:45.892Z,21.00
2018-09-06T08:31:14.217Z,20.80
2018-09-06T08:33:42.325Z,20.70
2018-09-06T08:36:10.545Z,20.80
2018-09-06T08:38:38.780Z,20.70
2018-09-06T08:41:07.030Z,20.70
2018-09-06T08:43:35.222Z,20.80
2018-09-06T08:46:03.412Z,20.60
2018-09-06T08:48:31.565Z,20.70
2018-09-06T08:50:59.791Z,20.70
2018-09-06T08:53:27.982Z,20.80
2018-09-06T08:55:56.186Z,20.90
2018-09-06T08:58:24.460Z,20.90
2018-09-06T09:00:58.020Z,21.00
2018-09-06T09:03:26.199Z,21.10
2018-09-06T09:05:54.462Z,21.20
2018-09-06T09:08:22.658Z,21.30
2018-09-06T09:10:50.843Z,21.40
2018-09-06T09:13:19.104Z,21.40
2018-09-06T09:15:47.300Z,21.50
2018-09-06T09:18:15.533Z,21.50
2018-09-06T09:20:43.788Z,21.40
2018-09-06T09:23:12.229Z,21.50
2018-09-06T09:25:40.462Z,21.60
2018-09-06T09:28:08.678Z,21.80
2018-09-06T09:30:36.912Z,21.60
2018-09-06T09:33:05.231Z,21.90
2018-09-06T09:35:33.469Z,22.10
2018-09-06T09:38:01.721Z,22.40
2018-09-06T09:40:29.894Z,22.60
2018-09-06T09:42:58.100Z,22.70
2018-09-06T09:45:26.309Z,22.90
2018-09-06T09:47:54.526Z,23.00
2018-09-06T09:52:50.200Z,22.90
2018-09-06T09:55:18.438Z,22.80
2018-09-06T09:57:46.696Z,22.80
2018-09-06T10:00:14.885Z,22.60
2018-09-06T10:02:48.609Z,22.60
2018-09-06T10:05:22.333Z,22.50
2018-09-06T10:07:56.337Z,22.50
2018-09-06T10:10:24.748Z,22.80
2018-09-06T10:12:52.981Z,22.90
2018-09-06T10:15:21.225Z,22.90
2018-09-06T10:17:49.431Z,23.20
2018-09-06T10:20:17.604Z,23.40
2018-09-06T10:22:45.781Z,22.90
2018-09-06T10:25:13.999Z,22.70
2018-09-06T10:27:42.172Z,22.40
2018-09-06T10:30:10.345Z,22.60
2018-09-06T10:32:38.530Z,22.70
2018-09-06T10:35:07.034Z,22.80
2018-09-06T10:37:35.228Z,22.70
2018-09-06T10:40:03.522Z,22.70
2018-09-06T10:42:31.648Z,22.60
2018-09-06T10:44:59.851Z,22.80
2018-09-06T10:47:28.042Z,23.20
2018-09-06T10:49:56.224Z,23.30
2018-09-06T10:52:24.459Z,23.30
2018-09-06T10:54:52.667Z,23.30
2018-09-06T10:57:20.903Z,23.30
2018-09-06T10:59:49.092Z,23.20
2018-09-06T11:02:17.301Z,23.20
2018-09-06T11:04:45.588Z,23.00
2018-09-06T11:07:13.844Z,22.70
2018-09-06T11:09:42.042Z,22.40
2018-09-06T11:12:10.255Z,22.60
2018-09-06T11:14:38.430Z,23.10
2018-09-06T11:17:06.611Z,23.50
2018-09-06T11:19:34.829Z,23.90
2018-09-06T11:22:03.135Z,23.60
2018-09-06T11:24:31.334Z,23.60
2018-09-06T11:26:59.516Z,23.40
2018-09-06T11:29:27.755Z,23.30
2018-09-06T11:31:55.982Z,23.40
2018-09-06T11:34:24.256Z,23.50
2018-09-06T11:36:52.440Z,23.90
2018-09-06T11:39:20.654Z,23.70
2018-09-06T11:41:48.882Z,23.50
2018-09-06T11:44:17.109Z,23.30
2018-09-06T11:46:45.362Z,23.30
2018-09-06T11:49:13.544Z,23.30
2018-09-06T11:51:41.770Z,23.60
2018-09-06T11:54:09.976Z,23.80
2018-09-06T11:56:38.173Z,24.00
2018-09-06T11:59:06.364Z,24.30
2018-09-06T12:01:34.558Z,24.60
2018-09-06T12:04:02.898Z,24.70
2018-09-06T12:06:31.131Z,24.90
2018-09-06T12:08:59.294Z,24.90
2018-09-06T12:11:27.551Z,24.60
2018-09-06T12:13:55.732Z,24.40
2018-09-06T12:16:23.925Z,24.10
2018-09-06T12:18:52.127Z,23.80
2018-09-06T12:21:20.340Z,23.60
2018-09-06T12:23:48.539Z,23.60
2018-09-06T12:26:16.727Z,23.50
2018-09-06T12:28:44.950Z,23.40
2018-09-06T12:31:13.144Z,23.20
2018-09-06T12:33:41.480Z,23.10
2018-09-06T12:36:09.690Z,23.10
2018-09-06T12:38:37.941Z,23.20
2018-09-06T12:41:06.247Z,23.30
2018-09-06T12:43:34.448Z,23.30
2018-09-06T12:46:02.628Z,23.40
2018-09-06T12:48:30.976Z,23.30
2018-09-06T12:50:59.280Z,23.30
2018-09-06T12:53:27.501Z,23.00
2018-09-06T12:55:55.721Z,22.60
2018-09-06T12:58:23.919Z,22.40
2018-09-06T13:00:53.240Z,22.00
2018-09-06T13:03:21.596Z,21.90
2018-09-06T13:05:50.300Z,22.10
2018-09-06T13:08:18.519Z,22.10
2018-09-06T13:10:46.833Z,22.20
2018-09-06T13:13:15.063Z,22.40
2018-09-06T13:15:43.255Z,22.60
2018-09-06T13:18:11.515Z,22.40
2018-09-06T13:20:39.718Z,22.30
2018-09-06T13:23:07.912Z,22.20
2018-09-06T13:25:36.100Z,22.40
2018-09-06T13:28:04.357Z,22.50
2018-09-06T13:30:32.523Z,22.50
2018-09-06T13:33:00.735Z,22.50
2018-09-06T13:35:28.951Z,22.40
2018-09-06T13:37:57.098Z,22.40
2018-09-06T13:40:25.316Z,22.40
2018-09-06T13:42:53.500Z,22.30
2018-09-06T13:45:21.721Z,22.30
2018-09-06T13:47:49.915Z,22.20
2018-09-06T13:50:18.113Z,22.20
2018-09-06T13:52:46.318Z,22.20
2018-09-06T13:55:14.537Z,22.20
2018-09-06T13:57:42.756Z,21.90
2018-09-06T14:00:10.988Z,21.90
2018-09-06T14:02:39.255Z,21.80
2018-09-06T14:05:07.917Z,21.90
2018-09-06T14:07:36.055Z,22.00
2018-09-06T14:10:04.433Z,22.00
2018-09-06T14:12:32.624Z,22.00
2018-09-06T14:15:00.830Z,22.10
2018-09-06T14:17:29.008Z,22.40
2018-09-06T14:19:57.211Z,22.40
2018-09-06T14:22:25.408Z,22.50
2018-09-06T14:24:53.674Z,22.50
2018-09-06T14:27:21.904Z,22.20
2018-09-06T14:29:50.121Z,22.40
2018-09-06T14:32:18.344Z,22.40
2018-09-06T14:34:46.528Z,22.50
2018-09-06T14:37:15.122Z,22.50
2018-09-06T14:39:43.841Z,22.50
2018-09-06T14:42:12.077Z,22.70
2018-09-06T14:44:40.321Z,22.90
2018-09-06T14:47:08.668Z,23.10
2018-09-06T14:49:37.218Z,23.10
2018-09-06T14:52:05.864Z,23.10
2018-09-06T14:54:34.124Z,22.90
2018-09-06T14:57:02.354Z,22.80
2018-09-06T14:59:30.579Z,22.70
2018-09-06T15:01:58.885Z,22.90
2018-09-06T15:04:27.075Z,23.10
2018-09-06T15:06:55.303Z,23.20
2018-09-06T15:09:23.562Z,23.50
2018-09-06T15:11:51.823Z,23.50
2018-09-06T15:14:20.062Z,23.60
2018-09-06T15:16:48.276Z,23.80
2018-09-06T15:19:16.811Z,23.90
2018-09-06T15:21:45.037Z,23.80
2018-09-06T15:24:13.413Z,23.80
2018-09-06T15:26:41.654Z,24.00
2018-09-06T15:29:09.896Z,24.20
2018-09-06T15:31:38.146Z,24.30
2018-09-06T15:34:06.643Z,24.30
2018-09-06T15:36:34.876Z,24.40
2018-09-06T15:39:03.096Z,24.60
2018-09-06T15:41:31.305Z,24.80
2018-09-06T15:43:59.493Z,25.00
2018-09-06T15:46:27.708Z,25.20
2018-09-06T15:48:55.954Z,24.70
2018-09-06T15:51:24.166Z,24.30
2018-09-06T15:53:52.445Z,24.40
2018-09-06T15:56:20.655Z,24.50
2018-09-06T15:58:48.827Z,24.50
2018-09-06T16:01:17.222Z,24.30
2018-09-06T16:03:45.468Z,24.10
2018-09-06T16:06:13.603Z,23.90
2018-09-06T16:08:41.800Z,23.70
2018-09-06T16:11:10.064Z,23.60
2018-09-06T16:13:38.287Z,23.40
2018-09-06T16:16:06.473Z,23.40
2018-09-06T16:18:34.677Z,23.50
2018-09-06T16:21:02.924Z,23.50
2018-09-06T16:23:31.123Z,23.50
2018-09-06T16:25:59.306Z,23.40
2018-09-06T16:28:27.771Z,23.30
2018-09-06T16:30:56.021Z,23.30
2018-09-06T16:33:24.236Z,23.40
2018-09-06T16:35:52.491Z,23.30
2018-09-06T16:38:20.721Z,23.00
2018-09-06T16:40:48.942Z,22.80
2018-09-06T16:43:17.222Z,22.80
2018-09-06T16:45:45.466Z,22.80
2018-09-06T16:48:13.735Z,22.80
2018-09-06T16:50:42.026Z,22.80
2018-09-06T16:53:10.319Z,22.90
2018-09-06T16:55:38.560Z,23.00
2018-09-06T16:58:06.814Z,23.00
2018-09-06T17:00:35.079Z,23.00
2018-09-06T17:03:03.287Z,22.80
2018-09-06T17:05:31.517Z,22.70
2018-09-06T17:07:59.860Z,22.50
2018-09-06T17:10:28.108Z,22.40
2018-09-06T17:12:56.430Z,22.50
2018-09-06T17:15:24.712Z,22.50
2018-09-06T17:17:52.929Z,22.40
2018-09-06T17:20:21.262Z,22.10
2018-09-06T17:22:49.504Z,22.10
2018-09-06T17:25:17.913Z,22.20
2018-09-06T17:27:46.251Z,22.20
2018-09-06T17:30:14.521Z,22.20
2018-09-06T17:32:43.624Z,22.20
2018-09-06T17:35:11.833Z,22.20
2018-09-06T17:37:40.996Z,22.20
2018-09-06T17:40:09.205Z,22.20
2018-09-06T17:42:37.400Z,22.20
2018-09-06T17:45:05.657Z,22.20
2018-09-06T17:47:33.978Z,22.10
2018-09-06T17:50:02.170Z,22.00
2018-09-06T17:52:30.469Z,21.90
2018-09-06T17:54:58.885Z,21.90
2018-09-06T17:57:27.105Z,21.80
2018-09-06T17:59:55.441Z,21.50
2018-09-06T18:02:23.654Z,21.30
2018-09-06T18:04:51.918Z,21.10
2018-09-06T18:07:20.170Z,21.20
2018-09-06T18:09:48.501Z,21.30
2018-09-06T18:12:16.787Z,21.30
2018-09-06T18:14:45.041Z,21.10
2018-09-06T18:17:13.286Z,21.00
2018-09-06T18:19:41.466Z,21.00
2018-09-06T18:22:09.784Z,20.90
2018-09-06T18:24:38.080Z,20.90
2018-09-06T18:27:06.416Z,21.00
2018-09-06T18:29:34.661Z,20.80
2018-09-06T18:32:02.913Z,20.70
2018-09-06T18:34:32.400Z,20.70
2018-09-06T18:37:00.761Z,20.60
2018-09-06T18:39:29.219Z,20.50
2018-09-06T18:42:02.612Z,20.50
2018-09-06T18:44:31.036Z,20.50
2018-09-06T18:46:59.485Z,20.50
2018-09-06T18:49:27.865Z,20.50
2018-09-06T18:51:56.087Z,20.50
2018-09-06T18:54:24.285Z,20.50
2018-09-06T18:56:52.515Z,20.50
2018-09-06T18:59:21.112Z,20.50
2018-09-06T19:01:49.360Z,20.60
2018-09-06T19:04:18.582Z,20.60
2018-09-06T19:06:46.927Z,20.70
2018-09-06T19:09:15.257Z,20.70
2018-09-06T19:11:43.450Z,20.60
2018-09-06T19:14:11.739Z,20.50
2018-09-06T19:16:40.079Z,20.50
2018-09-06T19:19:08.302Z,20.50
2018-09-06T19:21:36.507Z,20.50
2018-09-06T19:24:04.812Z,20.50
2018-09-06T19:26:33.163Z,20.50
2018-09-06T19:29:01.428Z,20.50
2018-09-06T19:31:29.765Z,20.40
2018-09-06T19:33:58.025Z,20.40
2018-09-06T19:36:26.267Z,20.30
2018-09-06T19:38:54.544Z,20.20
2018-09-06T19:41:22.904Z,20.00
2018-09-06T19:43:51.131Z,19.90
2018-09-06T19:46:19.326Z,19.90
2018-09-06T19:48:47.635Z,20.00
2018-09-06T19:51:15.924Z,19.90
2018-09-06T19:53:44.256Z,19.80
2018-09-06T19:56:12.645Z,19.80
2018-09-06T19:58:41.077Z,19.70
2018-09-06T20:01:09.296Z,19.60
2018-09-06T20:03:37.510Z,19.60
2018-09-06T20:06:05.766Z,19.40
2018-09-06T20:08:33.998Z,19.50
2018-09-06T20:11:02.317Z,19.40
2018-09-06T20:13:30.812Z,19.50
2018-09-06T20:15:59.164Z,19.40
2018-09-06T20:18:27.359Z,19.50
2018-09-06T20:20:55.716Z,19.60
2018-09-06T20:23:23.989Z,19.40
2018-09-06T20:25:52.276Z,19.40
2018-09-06T20:28:21.623Z,19.30
2018-09-06T20:30:49.756Z,19.30
2018-09-06T20:33:18.071Z,19.40
2018-09-06T20:35:46.273Z,19.30
2018-09-06T20:38:14.500Z,19.20
2018-09-06T20:40:42.825Z,19.10
2018-09-06T20:43:11.041Z,19.20
2018-09-06T20:45:39.392Z,19.30
2018-09-06T20:48:07.596Z,19.20
2018-09-06T20:50:36.154Z,19.20
2018-09-06T20:53:05.004Z,19.20
2018-09-06T20:55:33.553Z,19.00
2018-09-06T20:58:02.825Z,19.00
2018-09-06T21:00:31.013Z,18.90
2018-09-06T21:03:01.343Z,18.90
2018-09-06T21:05:29.684Z,18.80
2018-09-06T21:07:57.877Z,18.70
2018-09-06T21:10:26.243Z,18.70
2018-09-06T21:12:54.454Z,18.70
2018-09-06T21:15:22.712Z,18.60
2018-09-06T21:17:50.877Z,18.70
2018-09-06T21:20:19.084Z,18.80
2018-09-06T21:22:47.371Z,18.80
2018-09-06T21:25:15.557Z,18.70
2018-09-06T21:27:43.743Z,18.70
2018-09-06T21:30:11.981Z,18.80
2018-09-06T21:32:40.307Z,18.80
2018-09-06T21:35:08.539Z,18.80
2018-09-06T21:37:36.796Z,18.80
2018-09-06T21:40:05.009Z,18.70
2018-09-06T21:42:33.236Z,18.80
2018-09-06T21:45:01.419Z,18.70
2018-09-06T21:47:29.581Z,18.70
2018-09-06T21:49:57.774Z,18.60
2018-09-06T21:52:25.948Z,18.60
2018-09-06T21:54:54.173Z,18.60
2018-09-06T21:57:22.392Z,18.60
2018-09-06T21:59:50.648Z,18.60
2018-09-06T22:02:24.280Z,18.50
2018-09-06T22:04:52.469Z,18.50
2018-09-06T22:07:20.803Z,18.50
2018-09-06T22:09:49.013Z,18.50
2018-09-06T22:12:18.174Z,18.50
2018-09-06T22:14:47.789Z,18.40
2018-09-06T22:17:16.241Z,18.40
2018-09-06T22:19:44.750Z,18.40
2018-09-06T22:22:12.916Z,18.30
2018-09-06T22:24:41.603Z,18.30
2018-09-06T22:27:09.839Z,18.30
2018-09-06T22:29:38.019Z,18.10
2018-09-06T22:32:06.265Z,18.10
2018-09-06T22:34:34.446Z,18.20
2018-09-06T22:37:02.689Z,18.00
2018-09-06T22:39:30.909Z,17.90
2018-09-06T22:41:59.228Z,17.80
2018-09-06T22:44:27.454Z,17.90
2018-09-06T22:46:55.656Z,18.00
2018-09-06T22:49:23.829Z,18.10
2018-09-06T22:51:52.048Z,18.20
2018-09-06T22:54:20.266Z,18.30
2018-09-06T22:56:48.769Z,18.30
2018-09-06T22:59:16.952Z,18.30
2018-09-06T23:01:45.144Z,18.30
2018-09-06T23:04:13.342Z,18.30
2018-09-06T23:06:41.543Z,18.30
2018-09-06T23:09:09.724Z,18.30
2018-09-06T23:11:37.897Z,18.20
2018-09-06T23:14:06.157Z,18.30
2018-09-06T23:16:34.364Z,18.30
2018-09-06T23:19:02.582Z,18.30
2018-09-06T23:21:30.785Z,18.30
2018-09-06T23:23:59.018Z,18.40
2018-09-06T23:26:27.212Z,18.40
2018-09-06T23:28:55.417Z,18.40
2018-09-06T23:31:23.684Z,18.40
2018-09-06T23:33:51.846Z,18.30
2018-09-06T23:36:20.081Z,18.30
2018-09-06T23:38:48.275Z,18.30
2018-09-06T23:41:16.536Z,18.40
2018-09-06T23:43:44.739Z,18.40
2018-09-06T23:46:12.993Z,18.40
2018-09-06T23:48:41.235Z,18.40
2018-09-06T23:51:09.451Z,18.30
2018-09-06T23:53:37.621Z,18.20
2018-09-06T23:56:05.790Z,18.20
2018-09-06T23:58:33.972Z,18.20
